sensor_id;sensor_type;location;lat;lon;timestamp;P1;durP1;ratioP1;P2;durP2;ratioP2
59653;SDS011;66556;52.008;5.432;2023-01-28T00:02:40;8.1;;;7.3;;
59653;SDS011;66556;52.008;5.432;2023-01-28T00:04:17;9.21;;;8.2;;
59653;SDS011;66556;52.008;5.432;2023-01-28T00:06:00;9.71;;;8.71;;
59653;SDS011;66556;52.008;5.432;2023-01-28T00:07:38;9.9;;;8.6;;
59653;SDS011;66556;52.008;5.432;2023-01-28T00:10:50;10.4;;;9.31;;
59653;SDS011;66556;52.008;5.432;2023-01-28T00:12:26;10.4;;;9.4;;
59653;SDS011;66556;52.008;5.432;2023-01-28T00:14:03;9.21;;;8.31;;
59653;SDS011;66556;52.008;5.432;2023-01-28T00:17:17;10.1;;;9.1;;
59653;SDS011;66556;52.008;5.432;2023-01-28T00:18:53;10.5;;;9.4;;
59653;SDS011;66556;52.008;5.432;2023-01-28T00:20:30;9.81;;;8.5;;
59653;SDS011;66556;52.008;5.432;2023-01-28T00:23:46;10.0;;;9.0;;
59653;SDS011;66556;52.008;5.432;2023-01-28T00:25:26;10.8;;;9.71;;
59653;SDS011;66556;52.008;5.432;2023-01-28T00:27:02;10.7;;;9.6;;
59653;SDS011;66556;52.008;5.432;2023-01-28T00:28:38;12.2;;;9.6;;
59653;SDS011;66556;52.008;5.432;2023-01-28T00:31:53;11.4;;;10.3;;
59653;SDS011;66556;52.008;5.432;2023-01-28T00:33:30;10.6;;;9.5;;
59653;SDS011;66556;52.008;5.432;2023-01-28T00:35:07;11.4;;;10.3;;
59653;SDS011;66556;52.008;5.432;2023-01-28T00:38:20;11.7;;;10.5;;
59653;SDS011;66556;52.008;5.432;2023-01-28T00:39:56;11.6;;;10.4;;
59653;SDS011;66556;52.008;5.432;2023-01-28T00:41:32;11.5;;;9.9;;
59653;SDS011;66556;52.008;5.432;2023-01-28T00:43:09;11.4;;;10.3;;
59653;SDS011;66556;52.008;5.432;2023-01-28T00:46:21;11.2;;;10.1;;
59653;SDS011;66556;52.008;5.432;2023-01-28T00:47:59;10.7;;;9.71;;
59653;SDS011;66556;52.008;5.432;2023-01-28T00:49:35;11.1;;;10.0;;
59653;SDS011;66556;52.008;5.432;2023-01-28T00:52:51;11.5;;;10.4;;
59653;SDS011;66556;52.008;5.432;2023-01-28T00:54:27;11.4;;;10.21;;
59653;SDS011;66556;52.008;5.432;2023-01-28T00:56:04;11.3;;;10.21;;
59653;SDS011;66556;52.008;5.432;2023-01-28T00:59:18;11.6;;;10.4;;
59653;SDS011;66556;52.008;5.432;2023-01-28T01:00:54;11.6;;;10.4;;
59653;SDS011;66556;52.008;5.432;2023-01-28T01:02:31;11.5;;;10.3;;
59653;SDS011;66556;52.008;5.432;2023-01-28T01:04:08;11.1;;;10.0;;
59653;SDS011;66556;52.008;5.432;2023-01-28T01:07:22;11.0;;;9.9;;
59653;SDS011;66556;52.008;5.432;2023-01-28T01:08:59;10.5;;;9.4;;
59653;SDS011;66556;52.008;5.432;2023-01-28T01:10:36;11.0;;;9.9;;
59653;SDS011;66556;52.008;5.432;2023-01-28T01:13:51;11.2;;;10.1;;
59653;SDS011;66556;52.008;5.432;2023-01-28T01:15:28;10.4;;;9.4;;
59653;SDS011;66556;52.008;5.432;2023-01-28T01:17:04;10.3;;;9.31;;
59653;SDS011;66556;52.008;5.432;2023-01-28T01:18:41;11.0;;;9.81;;
59653;SDS011;66556;52.008;5.432;2023-01-28T01:21:57;10.9;;;9.81;;
59653;SDS011;66556;52.008;5.432;2023-01-28T01:23:33;10.0;;;9.1;;
59653;SDS011;66556;52.008;5.432;2023-01-28T01:25:10;11.1;;;10.0;;
59653;SDS011;66556;52.008;5.432;2023-01-28T01:28:25;10.3;;;9.31;;
59653;SDS011;66556;52.008;5.432;2023-01-28T01:30:01;10.7;;;9.6;;
59653;SDS011;66556;52.008;5.432;2023-01-28T01:31:38;11.5;;;10.3;;
59653;SDS011;66556;52.008;5.432;2023-01-28T01:34:51;11.5;;;10.3;;
59653;SDS011;66556;52.008;5.432;2023-01-28T01:36:28;11.1;;;10.0;;
59653;SDS011;66556;52.008;5.432;2023-01-28T01:38:05;11.3;;;10.21;;
59653;SDS011;66556;52.008;5.432;2023-01-28T01:39:42;11.1;;;10.0;;
59653;SDS011;66556;52.008;5.432;2023-01-28T01:43:00;12.0;;;10.21;;
59653;SDS011;66556;52.008;5.432;2023-01-28T01:44:54;11.9;;;10.6;;
59653;SDS011;66556;52.008;5.432;2023-01-28T01:46:33;10.8;;;9.71;;
59653;SDS011;66556;52.008;5.432;2023-01-28T01:48:18;11.1;;;9.9;;
59653;SDS011;66556;52.008;5.432;2023-01-28T01:51:41;11.3;;;10.1;;
59653;SDS011;66556;52.008;5.432;2023-01-28T01:53:21;12.0;;;10.7;;
59653;SDS011;66556;52.008;5.432;2023-01-28T01:55:02;11.8;;;10.6;;
59653;SDS011;66556;52.008;5.432;2023-01-28T01:56:44;11.6;;;10.4;;
59653;SDS011;66556;52.008;5.432;2023-01-28T01:58:26;11.7;;;10.5;;
59653;SDS011;66556;52.008;5.432;2023-01-28T02:01:46;12.1;;;10.8;;
59653;SDS011;66556;52.008;5.432;2023-01-28T02:03:24;13.2;;;11.1;;
59653;SDS011;66556;52.008;5.432;2023-01-28T02:05:06;12.6;;;11.0;;
59653;SDS011;66556;52.008;5.432;2023-01-28T02:06:45;12.0;;;10.8;;
59653;SDS011;66556;52.008;5.432;2023-01-28T02:09:58;11.2;;;10.1;;
59653;SDS011;66556;52.008;5.432;2023-01-28T02:11:34;11.7;;;10.5;;
59653;SDS011;66556;52.008;5.432;2023-01-28T02:13:11;11.2;;;10.1;;
59653;SDS011;66556;52.008;5.432;2023-01-28T02:21:22;11.1;;;9.9;;
59653;SDS011;66556;52.008;5.432;2023-01-28T02:22:18;12.3;;;11.1;;
59653;SDS011;66556;52.008;5.432;2023-01-28T02:24:16;11.7;;;10.1;;
59653;SDS011;66556;52.008;5.432;2023-01-28T02:27:13;12.2;;;10.9;;
59653;SDS011;66556;52.008;5.432;2023-01-28T02:29:04;12.0;;;10.8;;
59653;SDS011;66556;52.008;5.432;2023-01-28T02:30:51;13.3;;;11.9;;
59653;SDS011;66556;52.008;5.432;2023-01-28T02:32:38;13.0;;;11.7;;
59653;SDS011;66556;52.008;5.432;2023-01-28T02:34:23;13.3;;;11.4;;
59653;SDS011;66556;52.008;5.432;2023-01-28T02:36:17;12.0;;;10.8;;
59653;SDS011;66556;52.008;5.432;2023-01-28T02:39:47;12.2;;;10.4;;
59653;SDS011;66556;52.008;5.432;2023-01-28T02:41:30;12.4;;;11.1;;
59653;SDS011;66556;52.008;5.432;2023-01-28T02:43:13;12.1;;;10.9;;
59653;SDS011;66556;52.008;5.432;2023-01-28T02:44:50;13.2;;;11.8;;
59653;SDS011;66556;52.008;5.432;2023-01-28T02:49:38;12.8;;;11.2;;
59653;SDS011;66556;52.008;5.432;2023-01-28T02:51:19;12.4;;;11.0;;
59653;SDS011;66556;52.008;5.432;2023-01-28T02:53:41;13.1;;;11.5;;
59653;SDS011;66556;52.008;5.432;2023-01-28T02:55:50;12.7;;;11.4;;
59653;SDS011;66556;52.008;5.432;2023-01-28T02:57:35;12.5;;;11.3;;
59653;SDS011;66556;52.008;5.432;2023-01-28T02:59:33;13.2;;;11.9;;
59653;SDS011;66556;52.008;5.432;2023-01-28T03:01:17;12.9;;;11.6;;
59653;SDS011;66556;52.008;5.432;2023-01-28T03:04:52;13.7;;;12.3;;
59653;SDS011;66556;52.008;5.432;2023-01-28T03:06:38;13.5;;;12.0;;
59653;SDS011;66556;52.008;5.432;2023-01-28T03:09:26;14.2;;;12.7;;
59653;SDS011;66556;52.008;5.432;2023-01-28T03:36:54;15.2;;;12.7;;
59653;SDS011;66556;52.008;5.432;2023-01-28T03:38:41;14.5;;;13.0;;
59653;SDS011;66556;52.008;5.432;2023-01-28T03:40:18;14.5;;;13.0;;
59653;SDS011;66556;52.008;5.432;2023-01-28T03:41:56;14.5;;;13.0;;
59653;SDS011;66556;52.008;5.432;2023-01-28T03:43:34;14.6;;;13.1;;
59653;SDS011;66556;52.008;5.432;2023-01-28T03:45:13;13.8;;;12.3;;
59653;SDS011;66556;52.008;5.432;2023-01-28T03:48:26;14.3;;;12.8;;
59653;SDS011;66556;52.008;5.432;2023-01-28T03:50:06;14.8;;;13.3;;
59653;SDS011;66556;52.008;5.432;2023-01-28T03:51:45;14.8;;;13.2;;
59653;SDS011;66556;52.008;5.432;2023-01-28T03:54:57;14.2;;;12.7;;
59653;SDS011;66556;52.008;5.432;2023-01-28T03:56:36;14.7;;;13.1;;
59653;SDS011;66556;52.008;5.432;2023-01-28T03:58:13;13.9;;;12.5;;
59653;SDS011;66556;52.008;5.432;2023-01-28T03:59:51;13.2;;;11.8;;
59653;SDS011;66556;52.008;5.432;2023-01-28T04:03:16;14.6;;;13.0;;
59653;SDS011;66556;52.008;5.432;2023-01-28T04:04:53;14.0;;;12.6;;
59653;SDS011;66556;52.008;5.432;2023-01-28T04:06:30;14.6;;;13.1;;
59653;SDS011;66556;52.008;5.432;2023-01-28T04:08:06;15.6;;;14.0;;
59653;SDS011;66556;52.008;5.432;2023-01-28T04:11:20;15.0;;;13.2;;
59653;SDS011;66556;52.008;5.432;2023-01-28T04:12:56;13.6;;;12.3;;
59653;SDS011;66556;52.008;5.432;2023-01-28T04:14:32;13.0;;;11.7;;
59653;SDS011;66556;52.008;5.432;2023-01-28T04:17:45;13.5;;;12.1;;
59653;SDS011;66556;52.008;5.432;2023-01-28T04:19:23;13.9;;;12.5;;
59653;SDS011;66556;52.008;5.432;2023-01-28T04:21:00;14.4;;;12.4;;
59653;SDS011;66556;52.008;5.432;2023-01-28T04:24:12;13.1;;;11.8;;
59653;SDS011;66556;52.008;5.432;2023-01-28T04:25:49;13.1;;;11.7;;
59653;SDS011;66556;52.008;5.432;2023-01-28T04:27:26;13.7;;;12.3;;
59653;SDS011;66556;52.008;5.432;2023-01-28T04:29:02;13.5;;;12.1;;
59653;SDS011;66556;52.008;5.432;2023-01-28T04:32:14;14.1;;;12.7;;
59653;SDS011;66556;52.008;5.432;2023-01-28T04:33:50;13.4;;;11.9;;
59653;SDS011;66556;52.008;5.432;2023-01-28T04:35:26;13.2;;;11.6;;
59653;SDS011;66556;52.008;5.432;2023-01-28T04:38:39;13.7;;;12.3;;
59653;SDS011;66556;52.008;5.432;2023-01-28T04:40:15;13.9;;;12.5;;
59653;SDS011;66556;52.008;5.432;2023-01-28T04:41:52;12.7;;;11.4;;
59653;SDS011;66556;52.008;5.432;2023-01-28T04:45:05;13.8;;;12.3;;
59653;SDS011;66556;52.008;5.432;2023-01-28T04:46:43;12.5;;;11.2;;
59653;SDS011;66556;52.008;5.432;2023-01-28T04:48:19;13.4;;;12.0;;
59653;SDS011;66556;52.008;5.432;2023-01-28T04:49:55;13.6;;;12.2;;
59653;SDS011;66556;52.008;5.432;2023-01-28T04:53:07;13.2;;;11.9;;
59653;SDS011;66556;52.008;5.432;2023-01-28T04:54:45;13.1;;;11.7;;
59653;SDS011;66556;52.008;5.432;2023-01-28T04:56:21;13.2;;;11.9;;
59653;SDS011;66556;52.008;5.432;2023-01-28T04:59:34;12.6;;;11.3;;
59653;SDS011;66556;52.008;5.432;2023-01-28T05:01:10;12.7;;;11.1;;
59653;SDS011;66556;52.008;5.432;2023-01-28T05:02:46;12.4;;;11.2;;
59653;SDS011;66556;52.008;5.432;2023-01-28T05:05:58;13.3;;;12.0;;
59653;SDS011;66556;52.008;5.432;2023-01-28T05:07:35;12.9;;;11.6;;
59653;SDS011;66556;52.008;5.432;2023-01-28T05:09:12;12.1;;;10.9;;
59653;SDS011;66556;52.008;5.432;2023-01-28T05:12:24;12.1;;;10.9;;
59653;SDS011;66556;52.008;5.432;2023-01-28T05:14:01;12.3;;;10.9;;
59653;SDS011;66556;52.008;5.432;2023-01-28T05:15:37;11.9;;;10.8;;
59653;SDS011;66556;52.008;5.432;2023-01-28T05:17:13;12.4;;;11.2;;
59653;SDS011;66556;52.008;5.432;2023-01-28T05:20:26;12.4;;;11.2;;
59653;SDS011;66556;52.008;5.432;2023-01-28T05:22:02;11.6;;;10.5;;
59653;SDS011;66556;52.008;5.432;2023-01-28T05:23:38;12.0;;;10.8;;
59653;SDS011;66556;52.008;5.432;2023-01-28T05:26:50;12.6;;;11.4;;
59653;SDS011;66556;52.008;5.432;2023-01-28T05:28:28;12.7;;;11.3;;
59653;SDS011;66556;52.008;5.432;2023-01-28T05:30:06;13.6;;;12.2;;
59653;SDS011;66556;52.008;5.432;2023-01-28T05:33:19;11.9;;;10.7;;
59653;SDS011;66556;52.008;5.432;2023-01-28T05:34:55;11.7;;;10.6;;
59653;SDS011;66556;52.008;5.432;2023-01-28T05:36:31;12.5;;;11.3;;
59653;SDS011;66556;52.008;5.432;2023-01-28T05:38:07;12.2;;;10.9;;
59653;SDS011;66556;52.008;5.432;2023-01-28T05:41:20;12.7;;;11.5;;
59653;SDS011;66556;52.008;5.432;2023-01-28T05:42:56;12.8;;;11.6;;
59653;SDS011;66556;52.008;5.432;2023-01-28T05:44:32;13.1;;;11.7;;
59653;SDS011;66556;52.008;5.432;2023-01-28T05:47:44;13.1;;;11.7;;
59653;SDS011;66556;52.008;5.432;2023-01-28T05:49:21;11.6;;;10.21;;
59653;SDS011;66556;52.008;5.432;2023-01-28T05:50:58;11.4;;;10.3;;
59653;SDS011;66556;52.008;5.432;2023-01-28T05:54:11;10.6;;;9.6;;
59653;SDS011;66556;52.008;5.432;2023-01-28T05:55:47;11.1;;;10.1;;
59653;SDS011;66556;52.008;5.432;2023-01-28T05:57:24;12.3;;;11.0;;
59653;SDS011;66556;52.008;5.432;2023-01-28T05:59:00;11.3;;;10.21;;
59653;SDS011;66556;52.008;5.432;2023-01-28T06:02:13;12.3;;;11.1;;
59653;SDS011;66556;52.008;5.432;2023-01-28T06:03:49;12.1;;;10.9;;
59653;SDS011;66556;52.008;5.432;2023-01-28T06:05:25;11.9;;;10.7;;
59653;SDS011;66556;52.008;5.432;2023-01-28T06:08:38;11.6;;;10.5;;
59653;SDS011;66556;52.008;5.432;2023-01-28T06:10:16;11.7;;;10.6;;
59653;SDS011;66556;52.008;5.432;2023-01-28T06:11:53;11.4;;;10.3;;
59653;SDS011;66556;52.008;5.432;2023-01-28T06:15:06;11.5;;;10.4;;
59653;SDS011;66556;52.008;5.432;2023-01-28T06:16:43;10.8;;;9.81;;
59653;SDS011;66556;52.008;5.432;2023-01-28T06:18:18;11.0;;;10.0;;
59653;SDS011;66556;52.008;5.432;2023-01-28T06:19:55;11.0;;;10.0;;
59653;SDS011;66556;52.008;5.432;2023-01-28T06:23:08;12.0;;;10.8;;
59653;SDS011;66556;52.008;5.432;2023-01-28T06:24:45;11.2;;;10.1;;
59653;SDS011;66556;52.008;5.432;2023-01-28T06:26:21;11.5;;;10.4;;
59653;SDS011;66556;52.008;5.432;2023-01-28T06:29:34;11.9;;;10.7;;
59653;SDS011;66556;52.008;5.432;2023-01-28T06:31:11;13.8;;;11.3;;
59653;SDS011;66556;52.008;5.432;2023-01-28T06:32:52;13.7;;;11.7;;
59653;SDS011;66556;52.008;5.432;2023-01-28T06:36:06;13.5;;;11.7;;
59653;SDS011;66556;52.008;5.432;2023-01-28T06:37:44;11.7;;;10.5;;
59653;SDS011;66556;52.008;5.432;2023-01-28T06:39:20;10.6;;;9.6;;
59653;SDS011;66556;52.008;5.432;2023-01-28T06:40:57;12.9;;;11.6;;
59653;SDS011;66556;52.008;5.432;2023-01-28T06:44:10;10.7;;;9.6;;
59653;SDS011;66556;52.008;5.432;2023-01-28T06:45:47;10.8;;;9.81;;
59653;SDS011;66556;52.008;5.432;2023-01-28T06:47:23;11.9;;;10.7;;
59653;SDS011;66556;52.008;5.432;2023-01-28T06:50:35;12.0;;;10.8;;
59653;SDS011;66556;52.008;5.432;2023-01-28T06:52:11;12.1;;;10.9;;
59653;SDS011;66556;52.008;5.432;2023-01-28T06:53:47;11.6;;;10.4;;
59653;SDS011;66556;52.008;5.432;2023-01-28T06:57:00;12.5;;;11.2;;
59653;SDS011;66556;52.008;5.432;2023-01-28T06:58:36;15.3;;;11.2;;
59653;SDS011;66556;52.008;5.432;2023-01-28T07:00:14;12.0;;;10.8;;
59653;SDS011;66556;52.008;5.432;2023-01-28T07:01:51;11.5;;;10.4;;
59653;SDS011;66556;52.008;5.432;2023-01-28T07:05:03;11.3;;;10.21;;
59653;SDS011;66556;52.008;5.432;2023-01-28T07:06:40;12.7;;;11.4;;
59653;SDS011;66556;52.008;5.432;2023-01-28T07:08:16;12.6;;;11.0;;
59653;SDS011;66556;52.008;5.432;2023-01-28T07:11:29;13.0;;;10.9;;
59653;SDS011;66556;52.008;5.432;2023-01-28T07:13:05;12.7;;;11.4;;
59653;SDS011;66556;52.008;5.432;2023-01-28T07:14:41;12.6;;;11.3;;
59653;SDS011;66556;52.008;5.432;2023-01-28T07:17:53;11.8;;;10.6;;
59653;SDS011;66556;52.008;5.432;2023-01-28T07:19:29;11.8;;;10.6;;
59653;SDS011;66556;52.008;5.432;2023-01-28T07:21:07;12.7;;;11.4;;
59653;SDS011;66556;52.008;5.432;2023-01-28T07:22:43;14.4;;;11.8;;
59653;SDS011;66556;52.008;5.432;2023-01-28T07:25:59;14.1;;;10.8;;
59653;SDS011;66556;52.008;5.432;2023-01-28T07:27:36;19.5;;;11.4;;
59653;SDS011;66556;52.008;5.432;2023-01-28T07:29:12;12.1;;;10.8;;
59653;SDS011;66556;52.008;5.432;2023-01-28T07:32:26;14.6;;;11.7;;
59653;SDS011;66556;52.008;5.432;2023-01-28T07:34:02;14.2;;;11.8;;
59653;SDS011;66556;52.008;5.432;2023-01-28T07:35:39;12.3;;;11.0;;
59653;SDS011;66556;52.008;5.432;2023-01-28T07:38:51;15.2;;;11.7;;
59653;SDS011;66556;52.008;5.432;2023-01-28T07:40:27;18.11;;;12.8;;
59653;SDS011;66556;52.008;5.432;2023-01-28T07:42:04;17.91;;;12.1;;
59653;SDS011;66556;52.008;5.432;2023-01-28T07:43:40;16.8;;;12.9;;
59653;SDS011;66556;52.008;5.432;2023-01-28T07:46:53;15.0;;;12.8;;
59653;SDS011;66556;52.008;5.432;2023-01-28T07:48:30;14.5;;;11.9;;
59653;SDS011;66556;52.008;5.432;2023-01-28T07:50:07;20.8;;;12.6;;
59653;SDS011;66556;52.008;5.432;2023-01-28T07:53:22;16.2;;;11.6;;
59653;SDS011;66556;52.008;5.432;2023-01-28T07:54:58;18.11;;;12.0;;
59653;SDS011;66556;52.008;5.432;2023-01-28T07:56:34;18.0;;;12.3;;
59653;SDS011;66556;52.008;5.432;2023-01-28T07:59:47;12.5;;;11.2;;
59653;SDS011;66556;52.008;5.432;2023-01-28T08:01:23;18.91;;;12.0;;
59653;SDS011;66556;52.008;5.432;2023-01-28T08:03:01;13.8;;;11.5;;
59653;SDS011;66556;52.008;5.432;2023-01-28T08:04:40;14.3;;;11.9;;
59653;SDS011;66556;52.008;5.432;2023-01-28T08:07:53;15.5;;;11.9;;
59653;SDS011;66556;52.008;5.432;2023-01-28T08:09:29;14.0;;;12.4;;
59653;SDS011;66556;52.008;5.432;2023-01-28T08:11:06;13.6;;;11.8;;
59653;SDS011;66556;52.008;5.432;2023-01-28T08:14:26;15.8;;;12.3;;
59653;SDS011;66556;52.008;5.432;2023-01-28T08:16:04;14.3;;;12.1;;
59653;SDS011;66556;52.008;5.432;2023-01-28T08:17:40;15.3;;;11.8;;
59653;SDS011;66556;52.008;5.432;2023-01-28T08:19:17;13.6;;;12.2;;
59653;SDS011;66556;52.008;5.432;2023-01-28T08:22:31;14.3;;;12.1;;
59653;SDS011;66556;52.008;5.432;2023-01-28T08:24:07;13.4;;;11.5;;
59653;SDS011;66556;52.008;5.432;2023-01-28T08:25:43;14.2;;;11.9;;
59653;SDS011;66556;52.008;5.432;2023-01-28T08:28:56;15.6;;;12.7;;
59653;SDS011;66556;52.008;5.432;2023-01-28T08:30:33;14.8;;;13.2;;
59653;SDS011;66556;52.008;5.432;2023-01-28T08:32:10;18.5;;;12.7;;
59653;SDS011;66556;52.008;5.432;2023-01-28T08:33:46;13.2;;;11.7;;
59653;SDS011;66556;52.008;5.432;2023-01-28T08:36:58;13.2;;;11.5;;
59653;SDS011;66556;52.008;5.432;2023-01-28T08:38:34;17.11;;;12.3;;
59653;SDS011;66556;52.008;5.432;2023-01-28T08:40:10;13.8;;;12.4;;
59653;SDS011;66556;52.008;5.432;2023-01-28T08:43:23;13.2;;;11.7;;
59653;SDS011;66556;52.008;5.432;2023-01-28T08:45:00;14.5;;;12.9;;
59653;SDS011;66556;52.008;5.432;2023-01-28T08:46:37;14.2;;;12.7;;
59653;SDS011;66556;52.008;5.432;2023-01-28T08:49:52;13.4;;;12.0;;
59653;SDS011;66556;52.008;5.432;2023-01-28T08:51:28;15.8;;;13.1;;
59653;SDS011;66556;52.008;5.432;2023-01-28T08:53:06;15.3;;;12.0;;
59653;SDS011;66556;52.008;5.432;2023-01-28T08:54:45;18.0;;;13.3;;
59653;SDS011;66556;52.008;5.432;2023-01-28T08:58:02;13.7;;;12.3;;
59653;SDS011;66556;52.008;5.432;2023-01-28T08:59:43;17.61;;;14.1;;
59653;SDS011;66556;52.008;5.432;2023-01-28T09:01:20;14.2;;;12.7;;
59653;SDS011;66556;52.008;5.432;2023-01-28T09:04:32;14.5;;;12.7;;
59653;SDS011;66556;52.008;5.432;2023-01-28T09:06:08;13.7;;;11.7;;
59653;SDS011;66556;52.008;5.432;2023-01-28T09:07:44;14.9;;;12.5;;
59653;SDS011;66556;52.008;5.432;2023-01-28T09:09:21;14.6;;;13.0;;
59653;SDS011;66556;52.008;5.432;2023-01-28T09:12:35;16.8;;;12.7;;
59653;SDS011;66556;52.008;5.432;2023-01-28T09:14:12;14.3;;;12.8;;
59653;SDS011;66556;52.008;5.432;2023-01-28T09:15:50;15.1;;;12.7;;
59653;SDS011;66556;52.008;5.432;2023-01-28T09:19:02;13.5;;;12.1;;
59653;SDS011;66556;52.008;5.432;2023-01-28T09:20:38;13.9;;;12.4;;
59653;SDS011;66556;52.008;5.432;2023-01-28T09:22:15;13.4;;;12.0;;
59653;SDS011;66556;52.008;5.432;2023-01-28T09:25:31;13.5;;;12.0;;
59653;SDS011;66556;52.008;5.432;2023-01-28T09:27:08;15.9;;;12.7;;
59653;SDS011;66556;52.008;5.432;2023-01-28T09:28:44;17.3;;;13.0;;
59653;SDS011;66556;52.008;5.432;2023-01-28T09:30:23;13.6;;;12.2;;
59653;SDS011;66556;52.008;5.432;2023-01-28T09:33:38;15.0;;;12.8;;
59653;SDS011;66556;52.008;5.432;2023-01-28T09:35:16;13.8;;;12.0;;
59653;SDS011;66556;52.008;5.432;2023-01-28T09:36:53;13.9;;;12.5;;
59653;SDS011;66556;52.008;5.432;2023-01-28T09:40:08;13.3;;;11.9;;
59653;SDS011;66556;52.008;5.432;2023-01-28T09:41:55;14.2;;;12.5;;
59653;SDS011;66556;52.008;5.432;2023-01-28T09:43:58;13.1;;;11.7;;
59653;SDS011;66556;52.008;5.432;2023-01-28T09:45:41;14.4;;;11.2;;
59653;SDS011;66556;52.008;5.432;2023-01-28T09:47:23;12.7;;;11.4;;
59653;SDS011;66556;52.008;5.432;2023-01-28T09:50:52;12.7;;;11.3;;
59653;SDS011;66556;52.008;5.432;2023-01-28T09:52:29;13.7;;;11.7;;
59653;SDS011;66556;52.008;5.432;2023-01-28T09:54:13;12.4;;;10.8;;
59653;SDS011;66556;52.008;5.432;2023-01-28T09:56:02;12.3;;;11.0;;
59653;SDS011;66556;52.008;5.432;2023-01-28T09:57:42;12.5;;;11.3;;
59653;SDS011;66556;52.008;5.432;2023-01-28T10:01:02;12.8;;;11.4;;
59653;SDS011;66556;52.008;5.432;2023-01-28T10:03:09;12.9;;;11.6;;
59653;SDS011;66556;52.008;5.432;2023-01-28T10:05:13;12.8;;;11.5;;
59653;SDS011;66556;52.008;5.432;2023-01-28T10:06:58;14.1;;;11.5;;
59653;SDS011;66556;52.008;5.432;2023-01-28T10:09:03;12.9;;;11.0;;
59653;SDS011;66556;52.008;5.432;2023-01-28T10:11:09;13.2;;;10.6;;
59653;SDS011;66556;52.008;5.432;2023-01-28T10:12:59;11.8;;;10.1;;
59653;SDS011;66556;52.008;5.432;2023-01-28T10:14:50;11.6;;;10.4;;
59653;SDS011;66556;52.008;5.432;2023-01-28T10:16:41;11.5;;;10.1;;
59653;SDS011;66556;52.008;5.432;2023-01-28T10:18:25;10.9;;;9.81;;
59653;SDS011;66556;52.008;5.432;2023-01-28T10:21:58;11.3;;;10.1;;
59653;SDS011;66556;52.008;5.432;2023-01-28T10:23:40;14.9;;;10.1;;
59653;SDS011;66556;52.008;5.432;2023-01-28T10:25:30;10.9;;;9.81;;
59653;SDS011;66556;52.008;5.432;2023-01-28T10:27:10;11.4;;;10.21;;
59653;SDS011;66556;52.008;5.432;2023-01-28T10:28:53;11.8;;;10.3;;
59653;SDS011;66556;52.008;5.432;2023-01-28T10:32:22;12.1;;;9.71;;
59653;SDS011;66556;52.008;5.432;2023-01-28T10:34:04;10.7;;;9.21;;
59653;SDS011;66556;52.008;5.432;2023-01-28T10:35:41;9.0;;;7.9;;
59653;SDS011;66556;52.008;5.432;2023-01-28T10:37:18;9.0;;;7.3;;
59653;SDS011;66556;52.008;5.432;2023-01-28T10:40:31;10.21;;;7.6;;
59653;SDS011;66556;52.008;5.432;2023-01-28T10:42:13;10.7;;;7.5;;
59653;SDS011;66556;52.008;5.432;2023-01-28T10:44:02;8.31;;;7.5;;
59653;SDS011;66556;52.008;5.432;2023-01-28T10:45:39;10.5;;;7.2;;
59653;SDS011;66556;52.008;5.432;2023-01-28T10:49:14;7.8;;;6.5;;
59653;SDS011;66556;52.008;5.432;2023-01-28T10:50:55;7.4;;;5.7;;
59653;SDS011;66556;52.008;5.432;2023-01-28T10:52:32;6.5;;;5.3;;
59653;SDS011;66556;52.008;5.432;2023-01-28T10:54:24;6.9;;;5.5;;
59653;SDS011;66556;52.008;5.432;2023-01-28T10:56:03;6.2;;;5.6;;
59653;SDS011;66556;52.008;5.432;2023-01-28T10:59:21;6.7;;;5.2;;
59653;SDS011;66556;52.008;5.432;2023-01-28T11:01:02;6.4;;;5.4;;
59653;SDS011;66556;52.008;5.432;2023-01-28T11:02:42;6.4;;;4.61;;
59653;SDS011;66556;52.008;5.432;2023-01-28T11:05:59;5.7;;;4.1;;
59653;SDS011;66556;52.008;5.432;2023-01-28T11:07:37;5.7;;;4.1;;
59653;SDS011;66556;52.008;5.432;2023-01-28T11:09:22;5.5;;;4.41;;
59653;SDS011;66556;52.008;5.432;2023-01-28T11:11:00;4.91;;;4.1;;
59653;SDS011;66556;52.008;5.432;2023-01-28T11:14:18;4.5;;;4.1;;
59653;SDS011;66556;52.008;5.432;2023-01-28T11:15:57;6.2;;;4.5;;
59653;SDS011;66556;52.008;5.432;2023-01-28T11:17:41;7.8;;;5.2;;
59653;SDS011;66556;52.008;5.432;2023-01-28T11:19:28;6.5;;;5.0;;
59653;SDS011;66556;52.008;5.432;2023-01-28T11:21:14;5.0;;;4.5;;
59653;SDS011;66556;52.008;5.432;2023-01-28T11:24:32;6.8;;;4.91;;
59653;SDS011;66556;52.008;5.432;2023-01-28T11:26:13;6.8;;;4.41;;
59653;SDS011;66556;52.008;5.432;2023-01-28T11:27:53;5.8;;;4.5;;
59653;SDS011;66556;52.008;5.432;2023-01-28T11:29:30;6.8;;;4.5;;
59653;SDS011;66556;52.008;5.432;2023-01-28T11:32:57;5.11;;;4.2;;
59653;SDS011;66556;52.008;5.432;2023-01-28T11:34:46;5.0;;;4.41;;
59653;SDS011;66556;52.008;5.432;2023-01-28T11:36:25;4.8;;;4.3;;
59653;SDS011;66556;52.008;5.432;2023-01-28T11:38:10;5.6;;;4.2;;
59653;SDS011;66556;52.008;5.432;2023-01-28T11:41:49;7.5;;;4.5;;
59653;SDS011;66556;52.008;5.432;2023-01-28T11:43:28;6.6;;;4.91;;
59653;SDS011;66556;52.008;5.432;2023-01-28T11:45:08;6.4;;;4.3;;
59653;SDS011;66556;52.008;5.432;2023-01-28T11:46:55;6.7;;;4.2;;
59653;SDS011;66556;52.008;5.432;2023-01-28T11:49:33;8.81;;;4.61;;
59653;SDS011;66556;52.008;5.432;2023-01-28T11:51:29;5.5;;;4.2;;
59653;SDS011;66556;52.008;5.432;2023-01-28T11:53:48;6.0;;;4.2;;
59653;SDS011;66556;52.008;5.432;2023-01-28T11:55:39;5.3;;;4.1;;
59653;SDS011;66556;52.008;5.432;2023-01-28T11:57:24;6.9;;;4.0;;
59653;SDS011;66556;52.008;5.432;2023-01-28T11:59:17;7.2;;;4.2;;
59653;SDS011;66556;52.008;5.432;2023-01-28T12:01:08;6.8;;;3.8;;
59653;SDS011;66556;52.008;5.432;2023-01-28T12:04:41;6.1;;;4.3;;
59653;SDS011;66556;52.008;5.432;2023-01-28T12:06:42;6.3;;;3.1;;
59653;SDS011;66556;52.008;5.432;2023-01-28T12:08:33;5.0;;;3.5;;
59653;SDS011;66556;52.008;5.432;2023-01-28T12:10:19;5.9;;;3.7;;
59653;SDS011;66556;52.008;5.432;2023-01-28T12:12:15;5.9;;;3.8;;
59653;SDS011;66556;52.008;5.432;2023-01-28T12:14:16;9.0;;;5.0;;
59653;SDS011;66556;52.008;5.432;2023-01-28T12:16:10;8.31;;;5.6;;
59653;SDS011;66556;52.008;5.432;2023-01-28T12:18:30;6.1;;;4.1;;
59653;SDS011;66556;52.008;5.432;2023-01-28T12:20:21;3.9;;;3.5;;
59653;SDS011;66556;52.008;5.432;2023-01-28T12:22:38;4.5;;;3.5;;
59653;SDS011;66556;52.008;5.432;2023-01-28T12:25:29;4.61;;;3.5;;
59653;SDS011;66556;52.008;5.432;2023-01-28T12:27:22;5.8;;;3.5;;
59653;SDS011;66556;52.008;5.432;2023-01-28T12:29:14;5.5;;;3.9;;
59653;SDS011;66556;52.008;5.432;2023-01-28T12:31:06;6.7;;;4.1;;
59653;SDS011;66556;52.008;5.432;2023-01-28T12:33:04;6.6;;;4.0;;
59653;SDS011;66556;52.008;5.432;2023-01-28T12:35:16;5.9;;;3.7;;
59653;SDS011;66556;52.008;5.432;2023-01-28T12:37:35;4.91;;;4.1;;
59653;SDS011;66556;52.008;5.432;2023-01-28T12:39:28;5.9;;;4.61;;
59653;SDS011;66556;52.008;5.432;2023-01-28T12:41:17;5.5;;;4.3;;
59653;SDS011;66556;52.008;5.432;2023-01-28T12:42:58;5.5;;;4.2;;
59653;SDS011;66556;52.008;5.432;2023-01-28T12:46:28;6.1;;;4.91;;
59653;SDS011;66556;52.008;5.432;2023-01-28T12:48:14;7.2;;;4.5;;
59653;SDS011;66556;52.008;5.432;2023-01-28T12:49:58;5.2;;;4.41;;
59653;SDS011;66556;52.008;5.432;2023-01-28T12:51:50;5.5;;;4.41;;
59653;SDS011;66556;52.008;5.432;2023-01-28T12:53:35;5.6;;;4.2;;
59653;SDS011;66556;52.008;5.432;2023-01-28T12:55:19;6.0;;;4.2;;
59653;SDS011;66556;52.008;5.432;2023-01-28T12:58:59;5.6;;;4.3;;
59653;SDS011;66556;52.008;5.432;2023-01-28T13:00:42;6.8;;;4.2;;
59653;SDS011;66556;52.008;5.432;2023-01-28T13:02:24;6.5;;;4.2;;
59653;SDS011;66556;52.008;5.432;2023-01-28T13:04:05;6.1;;;3.7;;
59653;SDS011;66556;52.008;5.432;2023-01-28T13:05:49;5.4;;;4.2;;
59653;SDS011;66556;52.008;5.432;2023-01-28T13:09:15;8.0;;;4.7;;
59653;SDS011;66556;52.008;5.432;2023-01-28T13:10:54;8.4;;;6.2;;
59653;SDS011;66556;52.008;5.432;2023-01-28T13:12:33;6.3;;;4.61;;